Time;durP1;ratioP1;P1;durP2;ratioP2;P2;SDS_P1;SDS_P2;PMS_P1;PMS_P2;Temp;Humidity;BMP_temperature;BMP_pressure;BME280_temperature;BME280_humidity;BME280_pressure;Samples;Min_cycle;Max_cycle;Signal;HPM_P1;HPM_P2
2022/05/01 14:41:04;;;;;;;8.00;4.40;;;;;;;29.20;17.66;98847.96;105118;1307;545084;-81
2022/05/01 14:43:34;;;;;;;7.10;4.30;;;;;;;28.07;18.18;98848.48;108386;1277;22600;-71
2022/05/01 14:46:06;;;;;;;5.30;4.10;;;;;;;27.21;18.48;98848.39;108430;1277;24234;-70
2022/05/01 14:48:47;;;;;;;6.90;4.10;;;;;;;26.15;19.26;98845.25;108408;1277;22550;-70
2022/05/01 14:51:14;;;;;;;8.60;4.90;;;;;;;25.38;20.01;98846.95;108397;1277;22627;-71
2022/05/01 14:53:42;;;;;;;6.80;4.70;;;;;;;24.73;20.40;98843.77;108213;1275;250948;-71
2022/05/01 14:56:09;;;;;;;8.30;4.30;;;;;;;24.27;21.12;98847.05;108466;1274;22558;-71
2022/05/01 15:07:04;;;;;;;9.70;6.30;;;;;;;23.48;22.25;98845.02;108464;1274;25331;-71
2022/05/01 15:09:32;;;;;;;7.50;5.50;;;;;;;23.13;22.85;98842.21;108437;1274;25360;-70
2022/05/01 15:12:00;;;;;;;8.40;5.60;;;;;;;22.84;23.00;98840.53;108464;1274;22763;-75
2022/05/01 15:14:27;;;;;;;9.10;6.90;;;;;;;22.49;23.49;98843.83;108467;1274;22537;-70
2022/05/01 15:17:05;;;;;;;8.90;5.70;;;;;;;22.24;23.73;98842.06;108443;1274;22613;-70
2022/05/01 15:19:45;;;;;;;8.30;5.60;;;;;;;22.05;24.09;98843.80;108476;1274;22532;-71
2022/05/01 15:22:31;;;;;;;11.90;6.70;;;;;;;21.90;24.26;98844.14;108468;1275;24066;-70
2022/05/01 15:25:28;;;;;;;9.00;7.20;;;;;;;21.78;24.30;98841.05;108488;1277;23003;-70
2022/05/01 15:28:04;;;;;;;9.10;5.60;;;;;;;21.61;24.61;98842.03;108290;1277;22648;-70
2022/05/01 15:30:44;;;;;;;9.30;5.20;;;;;;;21.45;24.82;98845.69;108450;1274;22627;-71
2022/05/01 15:36:04;;;;;;;13.60;8.10;;;;;;;21.06;25.31;98846.59;108448;1274;22610;-70
2022/05/01 15:38:47;;;;;;;17.00;10.30;;;;;;;20.85;25.51;98843.50;108451;1274;25354;-70
2022/05/01 15:41:23;;;;;;;15.30;8.70;;;;;;;20.63;25.87;98846.27;108453;1275;22723;-76
2022/05/01 15:43:50;;;;;;;16.60;9.50;;;;;;;20.40;26.06;98847.66;108455;1274;22610;-79
2022/05/01 15:46:22;;;;;;;23.10;12.40;;;;;;;20.18;26.38;98851.44;108454;1275;24227;-71
2022/05/01 15:54:25;;;;;;;17.00;9.50;;;;;;;19.67;26.89;98846.54;108392;1277;22519;-71
2022/05/01 15:56:55;;;;;;;14.30;9.10;;;;;;;19.52;27.01;98848.05;108399;1276;22535;-71
2022/05/01 15:59:23;;;;;;;16.10;10.80;;;;;;;19.38;27.16;98848.33;108396;1277;22715;-73
2022/05/01 16:01:55;;;;;;;24.10;11.10;;;;;;;19.23;27.24;98845.73;108401;1277;22586;-75
2022/05/01 16:04:28;;;;;;;23.40;12.70;;;;;;;19.04;27.71;98845.83;108457;1277;22592;-80
2022/05/01 16:07:02;;;;;;;26.50;15.40;;;;;;;18.86;28.07;98843.16;108186;1277;22635;-84
2022/05/01 16:09:43;;;;;;;23.60;12.70;;;;;;;18.71;28.17;98842.09;108165;1276;22544;-71
2022/05/01 16:12:36;;;;;;;23.90;12.90;;;;;;;18.54;28.27;98847.27;108205;1277;22784;-71
2022/05/01 16:15:06;;;;;;;20.30;10.50;;;;;;;18.40;28.88;98844.89;108122;1277;22592;-71
2022/05/01 16:17:55;;;;;;;15.00;8.70;;;;;;;18.31;28.93;98840.98;108182;1277;22532;-70
2022/05/01 16:20:22;;;;;;;9.70;6.50;;;;;;;18.19;29.18;98842.23;108199;1277;22593;-71
2022/05/01 16:23:19;;;;;;;8.10;5.50;;;;;;;18.11;29.51;98841.47;108180;1277;22562;-71
2022/05/01 16:25:49;;;;;;;8.40;6.00;;;;;;;18.00;30.03;98843.19;108147;1277;22843;-71
2022/05/01 16:28:28;;;;;;;12.30;7.50;;;;;;;17.95;29.64;98846.06;108131;1277;22571;-74
2022/05/01 16:31:03;;;;;;;10.50;8.00;;;;;;;17.87;29.92;98842.98;108119;1277;23368;-71
2022/05/01 16:33:40;;;;;;;14.80;8.50;;;;;;;17.77;30.19;98843.48;108150;1277;22649;-71
2022/05/01 16:36:11;;;;;;;13.80;8.00;;;;;;;17.70;30.11;98844.56;108131;1277;22576;-71
2022/05/01 16:38:39;;;;;;;16.80;9.40;;;;;;;17.61;30.36;98843.91;108123;1277;22537;-71
2022/05/01 16:41:07;;;;;;;21.60;12.00;;;;;;;17.52;30.55;98843.25;108163;1277;22690;-70
2022/05/01 16:43:36;;;;;;;26.60;13.40;;;;;;;17.46;30.79;98845.81;108118;1277;25333;-73
2022/05/01 16:46:05;;;;;;;35.60;18.30;;;;;;;17.38;30.83;98850.89;108147;1277;22559;-71
2022/05/01 16:48:35;;;;;;;38.80;20.30;;;;;;;17.30;31.24;98851.13;108216;1277;22997;-72
2022/05/01 16:51:03;;;;;;;44.80;21.90;;;;;;;17.23;31.12;98851.00;108155;1277;22593;-69
2022/05/01 16:53:31;;;;;;;40.90;19.40;;;;;;;17.16;31.07;98851.33;108144;1277;25251;-69
2022/05/01 16:55:58;;;;;;;38.20;19.30;;;;;;;17.10;31.34;98850.61;108184;1277;22701;-74
2022/05/01 16:58:26;;;;;;;38.90;19.10;;;;;;;17.04;31.45;98852.55;108159;1277;22684;-72
2022/05/01 17:01:00;;;;;;;30.90;17.90;;;;;;;17.00;31.80;98854.44;108134;1277;25553;-72
2022/05/01 17:03:47;;;;;;;32.70;17.00;;;;;;;16.98;31.84;98857.34;108147;1277;22548;-72
2022/05/01 17:06:21;;;;;;;25.10;13.80;;;;;;;16.95;32.18;98859.19;108144;1277;22705;-72
2022/05/01 17:09:02;;;;;;;17.20;10.70;;;;;;;16.93;32.23;98862.52;108180;1277;22543;-69
2022/05/01 17:11:34;;;;;;;16.70;9.90;;;;;;;16.86;32.09;98860.45;108173;1277;23365;-72
2022/05/01 17:14:27;;;;;;;15.20;9.00;;;;;;;16.83;32.15;98861.64;108179;1277;22537;-71
2022/05/01 17:17:16;;;;;;;13.30;7.90;;;;;;;16.78;32.05;98866.38;108197;1277;22613;-72
2022/05/01 17:19:56;;;;;;;10.30;5.60;;;;;;;16.73;32.09;98867.58;108176;1274;22556;-74
2022/05/01 17:22:31;;;;;;;12.70;5.60;;;;;;;16.72;32.13;98867.84;108180;1275;24220;-70
2022/05/01 17:25:09;;;;;;;8.70;5.60;;;;;;;16.71;32.07;98870.02;108188;1274;22724;-74
2022/05/01 17:27:57;;;;;;;14.80;9.00;;;;;;;16.67;32.23;98869.67;108237;1275;22643;-70
2022/05/01 17:30:29;;;;;;;19.60;12.90;;;;;;;16.64;32.05;98873.83;108209;1274;22567;-71
2022/05/01 17:33:05;;;;;;;15.60;11.20;;;;;;;16.59;32.42;98875.33;108229;1275;22744;-70
2022/05/01 17:35:34;;;;;;;16.30;10.30;;;;;;;16.52;32.99;98870.75;108183;1275;24224;-70
2022/05/01 17:38:06;;;;;;;14.60;8.50;;;;;;;16.49;32.97;98873.25;108186;1275;23734;-70
2022/05/01 17:40:33;;;;;;;17.40;7.80;;;;;;;16.46;32.97;98873.21;108212;1277;22659;-72
2022/05/01 17:43:02;;;;;;;15.40;11.40;;;;;;;16.41;32.92;98876.25;108180;1274;22547;-71
2022/05/01 17:45:32;;;;;;;20.60;13.50;;;;;;;16.35;33.41;98878.21;108237;1275;22534;-70
2022/05/01 17:48:04;;;;;;;18.00;12.80;;;;;;;16.31;33.31;98878.76;108176;1275;22579;-70
2022/05/01 17:50:32;;;;;;;21.50;12.70;;;;;;;16.24;33.46;98876.48;108218;1274;22647;-70
2022/05/01 17:52:59;;;;;;;18.40;11.00;;;;;;;16.19;33.54;98880.68;108251;1277;23191;-70
2022/05/01 17:55:28;;;;;;;16.90;9.80;;;;;;;16.11;33.70;98877.23;108189;1275;22565;-70
2022/05/01 17:57:56;;;;;;;14.90;9.40;;;;;;;16.06;34.22;98881.16;108178;1274;22688;-70
2022/05/01 18:00:24;;;;;;;15.50;10.00;;;;;;;16.01;34.21;98883.17;108179;1274;22562;-70
2022/05/01 18:03:11;;;;;;;15.50;9.50;;;;;;;15.96;34.28;98885.35;108180;1274;22698;-70
2022/05/01 18:12:41;;;;;;;21.40;11.30;;;;;;;15.74;35.29;98884.05;108175;1274;23963;-74
2022/05/01 18:15:46;;;;;;;20.50;11.40;;;;;;;15.67;35.36;98885.61;107859;1281;22551;-70
2022/05/01 18:18:13;;;;;;;17.30;11.10;;;;;;;15.61;36.00;98889.00;107838;1281;22679;-70
2022/05/01 18:20:50;;;;;;;15.90;9.90;;;;;;;15.56;35.87;98890.84;107851;1281;22538;-70
2022/05/01 18:23:38;;;;;;;17.90;11.20;;;;;;;15.50;36.72;98893.05;107748;1283;22640;-77
2022/05/01 18:26:20;;;;;;;20.90;12.60;;;;;;;15.43;35.93;98894.11;107805;1282;22604;-74
2022/05/01 18:32:03;;;;;;;25.80;15.70;;;;;;;15.31;36.39;98900.15;107772;1283;22706;-70
2022/05/01 18:34:55;;;;;;;48.30;29.80;;;;;;;15.26;36.10;98903.73;107772;1283;22675;-78
2022/05/01 18:37:30;;;;;;;50.80;31.00;;;;;;;15.16;36.32;98904.70;107746;1283;22555;-72
2022/05/01 18:40:13;;;;;;;52.00;31.70;;;;;;;15.10;36.27;98906.05;107785;1282;26658;-76
2022/05/01 18:42:41;;;;;;;47.90;29.90;;;;;;;15.05;36.49;98905.98;107782;1283;22516;-76
2022/05/01 18:45:11;;;;;;;50.40;29.80;;;;;;;15.00;36.47;98908.64;107782;1283;22581;-71
2022/05/01 18:47:42;;;;;;;60.30;35.30;;;;;;;14.94;36.94;98908.92;107787;1283;22558;-73
2022/05/01 18:50:15;;;;;;;38.10;27.20;;;;;;;14.91;36.98;98911.04;107767;1277;22559;-74
2022/05/01 18:52:45;;;;;;;23.40;16.80;;;;;;;14.88;37.16;98909.59;108147;1277;24345;-71
2022/05/01 18:55:16;;;;;;;18.20;12.50;;;;;;;14.86;36.86;98907.58;108182;1277;22612;-71
2022/05/01 18:57:46;;;;;;;9.90;7.20;;;;;;;14.88;36.60;98902.40;108141;1277;22561;-72
2022/05/01 19:00:16;;;;;;;9.20;5.80;;;;;;;14.91;36.02;98903.55;108137;1276;22732;-77
2022/05/01 19:02:43;;;;;;;11.90;7.80;;;;;;;14.92;35.88;98901.17;108343;1277;23755;-78
2022/05/01 19:05:11;;;;;;;8.50;5.70;;;;;;;14.92;35.94;98904.14;108164;1277;22688;-72
2022/05/01 19:07:40;;;;;;;9.00;5.30;;;;;;;14.93;35.57;98903.36;108152;1277;23787;-73
2022/05/01 19:10:34;;;;;;;11.90;7.80;;;;;;;14.97;35.55;98905.48;108150;1277;22589;-73
2022/05/01 19:13:25;;;;;;;14.60;10.40;;;;;;;14.97;35.51;98903.42;108176;1277;22601;-74
2022/05/01 19:16:37;;;;;;;21.90;15.90;;;;;;;14.94;35.38;98904.89;108463;1276;24151;-71
2022/05/01 19:19:04;;;;;;;33.50;19.00;;;;;;;14.87;35.63;98907.15;107477;1283;22560;-77
2022/05/01 19:21:52;;;;;;;35.00;18.20;;;;;;;14.81;36.07;98907.33;107616;1283;23402;-78
2022/05/01 19:27:28;;;;;;;113.70;43.40;;;;;;;14.65;36.73;98911.22;107624;1283;22581;-71
2022/05/01 19:30:05;;;;;;;87.00;39.90;;;;;;;14.55;37.08;98910.69;107601;1283;22538;-73
2022/05/01 19:32:39;;;;;;;78.20;37.00;;;;;;;14.46;37.55;98912.80;107568;1283;22592;-70
2022/05/01 19:35:13;;;;;;;98.70;41.50;;;;;;;14.40;38.61;98911.20;107604;1283;22556;-70
2022/05/01 19:38:13;;;;;;;129.40;46.50;;;;;;;14.33;39.13;98914.53;107645;1283;22684;-76
2022/05/01 19:40:44;;;;;;;148.60;51.50;;;;;;;14.24;39.54;98913.41;107634;1283;22567;-71
2022/05/01 19:43:21;;;;;;;168.80;54.40;;;;;;;14.17;40.29;98913.96;107640;1283;23301;-74
2022/05/01 19:46:32;;;;;;;215.70;64.10;;;;;;;14.10;40.41;98915.22;107607;1283;22673;-78
2022/05/01 19:52:38;;;;;;;276.80;89.40;;;;;;;13.88;41.21;98916.83;107638;1283;22648;-72
2022/05/01 19:55:07;;;;;;;272.00;88.60;;;;;;;13.78;41.33;98918.25;108171;1274;22548;-70
2022/05/01 19:57:34;;;;;;;158.90;59.00;;;;;;;13.70;41.09;98919.42;108175;1275;22762;-70
2022/05/01 20:00:22;;;;;;;163.70;60.30;;;;;;;13.62;41.68;98914.92;108236;1275;22568;-73
2022/05/01 20:02:53;;;;;;;122.70;50.30;;;;;;;13.54;41.81;98916.92;108244;1274;22641;-70
2022/05/01 20:05:20;;;;;;;118.70;46.70;;;;;;;13.45;42.70;98918.92;108214;1274;22534;-70
2022/05/01 20:07:50;;;;;;;117.90;46.00;;;;;;;13.38;42.74;98920.50;108180;1277;23511;-74
2022/05/01 20:10:18;;;;;;;104.80;44.70;;;;;;;13.30;42.28;98920.21;108214;1274;22625;-74
2022/05/01 20:12:45;;;;;;;102.40;44.20;;;;;;;13.23;43.53;98920.70;108222;1275;26585;-74
2022/05/01 20:15:20;;;;;;;100.20;45.00;;;;;;;13.16;43.69;98918.41;108174;1276;22612;-72
2022/05/01 20:17:58;;;;;;;119.40;56.60;;;;;;;13.08;44.44;98915.64;108147;1274;22547;-70
2022/05/01 20:20:32;;;;;;;119.30;60.20;;;;;;;13.01;44.01;98915.98;108146;1275;22530;-71
2022/05/01 20:23:15;;;;;;;114.00;57.10;;;;;;;12.94;44.01;98916.66;108191;1274;22531;-77
2022/05/01 20:25:52;;;;;;;112.30;53.90;;;;;;;12.87;43.83;98914.73;108200;1274;22522;-70
2022/05/01 20:28:38;;;;;;;124.50;54.70;;;;;;;12.80;43.79;98915.36;108179;1274;22714;-70
2022/05/01 20:31:26;;;;;;;146.20;59.70;;;;;;;12.73;43.41;98915.65;108165;1274;22570;-70
2022/05/01 20:34:35;;;;;;;182.90;61.90;;;;;;;12.66;44.06;98914.91;108221;1275;22560;-71
2022/05/01 20:37:34;;;;;;;217.50;63.00;;;;;;;12.61;44.01;98918.77;107834;1281;22569;-71
2022/05/01 20:40:01;;;;;;;143.10;52.90;;;;;;;12.57;44.54;98916.80;107823;1281;22551;-71
2022/05/01 20:42:37;;;;;;;93.70;43.50;;;;;;;12.53;44.76;98914.96;107936;1277;22588;-71
2022/05/01 20:45:10;;;;;;;88.10;40.30;;;;;;;12.50;46.02;98916.92;108010;1277;22559;-71
2022/05/01 20:48:04;;;;;;;87.10;42.30;;;;;;;12.47;45.12;98917.84;108020;1278;22557;-71
2022/05/01 20:50:43;;;;;;;74.40;37.60;;;;;;;12.39;46.25;98915.20;108017;1277;22541;-72
2022/05/01 20:53:37;;;;;;;77.80;37.50;;;;;;;12.33;47.11;98918.77;108007;1277;24237;-76
2022/05/01 20:56:09;;;;;;;76.20;37.80;;;;;;;12.28;47.01;98916.32;107967;1277;22868;-71
2022/05/01 20:58:38;;;;;;;68.70;35.70;;;;;;;12.23;47.55;98922.59;108023;1277;22557;-71
2022/05/01 21:01:05;;;;;;;65.20;36.20;;;;;;;12.18;47.69;98920.12;108038;1278;26613;-70
2022/05/01 21:03:34;;;;;;;69.40;37.00;;;;;;;12.14;47.39;98923.91;108007;1278;22547;-71
2022/05/01 21:06:01;;;;;;;62.80;36.50;;;;;;;12.08;47.05;98922.73;107989;1277;24224;-71
2022/05/01 21:08:29;;;;;;;69.80;37.80;;;;;;;12.02;47.12;98918.94;108017;1277;22534;-71
2022/05/01 21:11:00;;;;;;;69.10;38.40;;;;;;;11.96;47.37;98917.41;108029;1277;22536;-71
2022/05/01 21:13:31;;;;;;;72.00;39.10;;;;;;;11.93;47.40;98917.48;108085;1277;22611;-72
2022/05/01 21:15:58;;;;;;;71.20;42.30;;;;;;;11.88;48.04;98911.49;108287;1274;22571;-70
2022/05/01 21:18:25;;;;;;;84.60;45.60;;;;;;;11.85;48.07;98913.15;108273;1274;22647;-71
2022/05/01 21:20:52;;;;;;;103.30;51.40;;;;;;;11.81;47.94;98914.04;108164;1274;22550;-71
2022/05/01 21:23:19;;;;;;;122.00;57.50;;;;;;;11.78;48.06;98914.60;108275;1274;22563;-70
2022/05/01 21:25:46;;;;;;;119.00;59.40;;;;;;;11.75;48.12;98913.59;108302;1274;22546;-71
2022/05/01 21:33:44;;;;;;;146.20;76.20;;;;;;;11.64;48.65;98910.45;108289;1274;24261;-72
2022/05/01 21:36:12;;;;;;;160.20;85.30;;;;;;;11.61;48.43;98910.27;108271;1274;22540;-70
2022/05/01 21:38:39;;;;;;;136.90;76.90;;;;;;;11.58;49.48;98909.63;108278;1274;22672;-75
2022/05/01 21:41:06;;;;;;;107.30;63.10;;;;;;;11.56;49.32;98912.01;108332;1271;23378;-70
2022/05/01 21:43:35;;;;;;;95.60;56.20;;;;;;;11.53;49.67;98909.95;108329;1271;22531;-71
2022/05/01 21:46:04;;;;;;;104.30;58.50;;;;;;;11.50;49.37;98909.40;108311;1271;22729;-70
2022/05/01 21:48:32;;;;;;;107.30;59.90;;;;;;;11.47;49.43;98910.13;108413;1271;22598;-71
2022/05/01 21:51:00;;;;;;;114.60;65.20;;;;;;;11.44;49.97;98910.69;108361;1271;22701;-71
2022/05/01 21:53:27;;;;;;;112.10;62.40;;;;;;;11.39;50.47;98909.98;108371;1271;25497;-71
2022/05/01 21:55:54;;;;;;;112.90;59.00;;;;;;;11.34;50.16;98906.45;108351;1271;22550;-78
2022/05/01 21:58:21;;;;;;;93.80;48.70;;;;;;;11.29;50.46;98906.73;108341;1271;22538;-81
2022/05/01 22:00:48;;;;;;;84.30;45.40;;;;;;;11.24;50.63;98904.11;108355;1271;25480;-72
2022/05/01 22:03:15;;;;;;;90.10;47.10;;;;;;;11.20;50.50;98904.92;108376;1271;22537;-71
2022/05/01 22:05:43;;;;;;;90.10;49.20;;;;;;;11.13;50.75;98903.41;108365;1271;24237;-71
2022/05/01 22:08:10;;;;;;;97.20;50.90;;;;;;;11.08;51.32;98906.23;108355;1271;22663;-71
2022/05/01 22:10:36;;;;;;;90.80;47.80;;;;;;;11.02;51.40;98906.06;108335;1271;22541;-71
2022/05/01 22:13:03;;;;;;;78.70;43.50;;;;;;;10.97;53.25;98906.38;108355;1271;23406;-72
2022/05/01 22:15:31;;;;;;;80.50;44.90;;;;;;;10.93;52.48;98908.36;108350;1271;22719;-71
2022/05/01 22:17:58;;;;;;;83.80;43.70;;;;;;;10.89;51.82;98907.52;108335;1271;23102;-69
2022/05/01 22:20:25;;;;;;;82.20;40.90;;;;;;;10.85;52.44;98907.09;108289;1274;22630;-70
2022/05/01 22:22:53;;;;;;;67.40;35.80;;;;;;;10.81;54.08;98907.35;108466;1274;22537;-72
2022/05/01 22:25:21;;;;;;;65.70;33.80;;;;;;;10.82;53.56;98903.08;108460;1274;23928;-70
2022/05/01 22:27:48;;;;;;;62.60;35.80;;;;;;;10.83;54.43;98902.18;108494;1274;25244;-71
2022/05/01 22:30:18;;;;;;;80.20;41.20;;;;;;;10.83;55.26;98900.40;108491;1274;24084;-74
2022/05/01 22:32:46;;;;;;;84.80;43.60;;;;;;;10.83;54.82;98900.10;108566;1274;22690;-70
2022/05/01 22:38:01;;;;;;;82.70;43.50;;;;;;;10.82;54.54;98897.89;108562;1274;22646;-70
2022/05/01 22:40:31;;;;;;;88.60;44.90;;;;;;;10.81;54.46;98897.77;108578;1274;22563;-72
2022/05/01 22:42:59;;;;;;;86.10;42.20;;;;;;;10.81;54.62;98894.66;108381;1274;22524;-72
2022/05/01 22:45:26;;;;;;;89.20;46.20;;;;;;;10.80;54.79;98895.39;108375;1274;22554;-71
2022/05/01 22:47:54;;;;;;;86.30;46.20;;;;;;;10.79;54.67;98893.52;108309;1273;22545;-71
2022/05/01 22:50:21;;;;;;;90.00;47.40;;;;;;;10.76;54.51;98896.70;108333;1274;22728;-71
2022/05/01 22:52:49;;;;;;;88.30;46.90;;;;;;;10.71;54.71;98893.71;108322;1274;22704;-71
2022/05/01 22:55:17;;;;;;;91.10;46.80;;;;;;;10.64;55.59;98893.43;108323;1274;22666;-71
2022/05/01 22:57:45;;;;;;;87.70;46.10;;;;;;;10.59;55.86;98892.88;108315;1273;22575;-71
2022/05/01 23:00:15;;;;;;;94.20;47.40;;;;;;;10.55;55.44;98891.75;108313;1274;22585;-71
2022/05/01 23:02:44;;;;;;;100.10;49.10;;;;;;;10.52;56.45;98894.52;108314;1274;25251;-71
2022/05/01 23:05:12;;;;;;;108.40;54.60;;;;;;;10.50;56.44;98894.65;108324;1274;22701;-71
2022/05/01 23:07:41;;;;;;;88.60;47.90;;;;;;;10.46;56.71;98897.45;108302;1273;22697;-71
2022/05/01 23:10:10;;;;;;;67.70;38.80;;;;;;;10.44;56.77;98900.42;108305;1274;22532;-71
2022/05/01 23:12:39;;;;;;;58.00;31.60;;;;;;;10.41;56.40;98896.05;108330;1274;22611;-71
2022/05/01 23:15:07;;;;;;;50.20;28.20;;;;;;;10.42;56.51;98893.36;108329;1272;22724;-71
2022/05/01 23:17:34;;;;;;;59.00;30.10;;;;;;;10.42;57.03;98891.27;108380;1274;22683;-71
2022/05/01 23:20:01;;;;;;;63.10;36.10;;;;;;;10.43;57.62;98891.05;108388;1271;26235;-79
2022/05/01 23:22:28;;;;;;;68.40;39.70;;;;;;;10.41;57.84;98887.50;108258;1271;22540;-72
2022/05/01 23:24:55;;;;;;;69.90;39.10;;;;;;;10.40;57.52;98886.34;108301;1274;24371;-79
2022/05/01 23:27:22;;;;;;;67.80;40.00;;;;;;;10.39;57.14;98884.83;108307;1274;22544;-70
2022/05/01 23:32:35;;;;;;;70.20;40.40;;;;;;;10.35;57.24;98886.65;108301;1274;26248;-70
2022/05/01 23:35:02;;;;;;;86.70;45.70;;;;;;;10.32;56.91;98890.14;108289;1274;22545;-70
2022/05/01 23:37:29;;;;;;;104.30;52.70;;;;;;;10.29;57.31;98890.49;108284;1274;24419;-75
2022/05/01 23:39:56;;;;;;;89.00;50.50;;;;;;;10.26;57.03;98892.45;108312;1274;22821;-70
2022/05/01 23:42:23;;;;;;;119.60;62.10;;;;;;;10.22;57.50;98890.58;108302;1274;22546;-71
2022/05/01 23:44:50;;;;;;;127.60;67.70;;;;;;;10.19;57.48;98889.41;108323;1274;22744;-70
2022/05/01 23:47:17;;;;;;;127.10;65.90;;;;;;;10.15;57.20;98888.02;108294;1274;22577;-70
2022/05/01 23:49:44;;;;;;;109.90;62.10;;;;;;;10.10;57.87;98888.98;108304;1274;22721;-72
2022/05/01 23:52:11;;;;;;;102.50;59.10;;;;;;;10.05;57.16;98890.34;108302;1274;23112;-70
2022/05/01 23:54:38;;;;;;;70.50;43.10;;;;;;;10.01;57.30;98889.58;108327;1274;22546;-71
2022/05/01 23:57:05;;;;;;;56.60;33.40;;;;;;;10.01;57.56;98884.66;108298;1274;22527;-71
2022/05/01 23:59:32;;;;;;;77.00;37.80;;;;;;;10.01;58.53;98882.77;108283;1274;22718;-70
